createdAt,value
2022-10-20T00:00:11.150Z,11.30
2022-10-20T00:02:38.185Z,11.30
2022-10-20T00:05:05.442Z,11.40
2022-10-20T00:07:32.044Z,11.40
2022-10-20T00:09:58.659Z,11.40
2022-10-20T00:12:25.307Z,11.40
2022-10-20T00:14:51.959Z,11.50
2022-10-20T00:17:18.657Z,11.50
2022-10-20T00:19:47.593Z,11.50
2022-10-20T00:22:14.220Z,11.50
2022-10-20T00:24:40.925Z,11.60
2022-10-20T00:27:07.580Z,11.60
2022-10-20T00:29:34.255Z,11.70
2022-10-20T00:32:01.061Z,11.70
2022-10-20T00:34:27.699Z,11.70
2022-10-20T00:36:54.337Z,11.80
2022-10-20T00:39:20.973Z,11.80
2022-10-20T00:41:47.624Z,11.80
2022-10-20T00:44:33.123Z,11.80
2022-10-20T00:46:59.791Z,11.80
2022-10-20T00:49:26.636Z,11.80
2022-10-20T00:51:54.763Z,11.80
2022-10-20T00:54:25.742Z,11.80
2022-10-20T00:56:53.525Z,11.80
2022-10-20T00:59:22.072Z,11.80
2022-10-20T01:01:49.049Z,11.80
2022-10-20T01:04:16.458Z,11.80
2022-10-20T01:06:43.526Z,11.80
2022-10-20T01:09:10.290Z,11.80
2022-10-20T01:11:46.372Z,11.80
2022-10-20T01:14:24.375Z,11.90
2022-10-20T01:17:03.352Z,11.80
2022-10-20T01:19:49.446Z,11.90
2022-10-20T01:22:35.071Z,11.90
2022-10-20T01:25:02.209Z,11.90
2022-10-20T01:27:33.544Z,11.90
2022-10-20T01:30:04.629Z,11.80
2022-10-20T01:32:31.268Z,11.90
2022-10-20T01:35:01.700Z,11.90
2022-10-20T01:37:34.293Z,11.90
2022-10-20T01:40:14.735Z,11.90
2022-10-20T01:42:42.033Z,11.90
2022-10-20T01:45:09.419Z,11.90
2022-10-20T01:47:36.846Z,11.80
2022-10-20T01:50:05.433Z,11.80
2022-10-20T01:52:32.103Z,11.80
2022-10-20T01:54:58.768Z,11.80
2022-10-20T01:57:25.815Z,11.80
2022-10-20T02:00:21.936Z,11.80
2022-10-20T02:03:07.102Z,11.80
2022-10-20T02:05:54.051Z,11.80
2022-10-20T02:08:28.440Z,11.80
2022-10-20T02:10:57.571Z,11.80
2022-10-20T02:13:24.703Z,11.80
2022-10-20T02:15:53.128Z,11.70
2022-10-20T02:18:22.241Z,11.80
2022-10-20T02:20:50.537Z,11.80
2022-10-20T02:23:17.797Z,11.70
2022-10-20T02:25:46.725Z,11.70
2022-10-20T02:28:14.567Z,11.70
2022-10-20T02:30:41.370Z,11.70
2022-10-20T02:33:08.615Z,11.70
2022-10-20T02:35:35.333Z,11.70
2022-10-20T02:38:01.936Z,11.60
2022-10-20T02:40:28.685Z,11.60
2022-10-20T02:42:55.369Z,11.60
2022-10-20T02:45:22.042Z,11.60
2022-10-20T02:47:48.721Z,11.50
2022-10-20T02:50:17.108Z,11.50
2022-10-20T02:52:44.021Z,11.50
2022-10-20T02:55:10.705Z,11.50
2022-10-20T02:57:37.623Z,11.50
2022-10-20T03:00:05.596Z,11.50
2022-10-20T03:02:32.225Z,11.50
2022-10-20T03:04:58.887Z,11.50
2022-10-20T03:07:25.535Z,11.40
2022-10-20T03:09:52.214Z,11.50
2022-10-20T03:12:18.877Z,11.40
2022-10-20T03:14:45.595Z,11.50
2022-10-20T03:17:12.203Z,11.50
2022-10-20T03:19:39.463Z,11.50
2022-10-20T03:22:06.084Z,11.50
2022-10-20T03:24:32.743Z,11.50
2022-10-20T03:26:59.389Z,11.50
2022-10-20T03:29:26.019Z,11.40
2022-10-20T03:31:52.757Z,11.40
2022-10-20T03:34:19.414Z,11.40
2022-10-20T03:36:46.079Z,11.40
2022-10-20T03:39:12.727Z,11.40
2022-10-20T03:41:39.403Z,11.40
2022-10-20T03:44:06.059Z,11.40
2022-10-20T03:46:32.781Z,11.40
2022-10-20T03:48:59.423Z,11.40
2022-10-20T03:51:26.053Z,11.40
2022-10-20T03:53:52.679Z,11.40
2022-10-20T03:56:20.723Z,11.40
2022-10-20T03:58:47.960Z,11.40
2022-10-20T04:01:15.864Z,11.30
2022-10-20T04:03:42.814Z,11.30
2022-10-20T04:06:09.517Z,11.30
2022-10-20T04:08:36.249Z,11.40
2022-10-20T04:11:02.947Z,11.40
2022-10-20T04:13:29.619Z,11.40
2022-10-20T04:15:56.225Z,11.40
2022-10-20T04:18:22.880Z,11.40
2022-10-20T04:20:49.600Z,11.40
2022-10-20T04:23:16.316Z,11.40
2022-10-20T04:25:45.939Z,11.40
2022-10-20T04:28:13.176Z,11.40
2022-10-20T04:30:39.857Z,11.50
2022-10-20T04:33:06.522Z,11.50
2022-10-20T04:35:33.211Z,11.50
2022-10-20T04:37:59.844Z,11.50
2022-10-20T04:40:26.545Z,11.50
2022-10-20T04:42:53.213Z,11.50
2022-10-20T04:45:19.834Z,11.50
2022-10-20T04:47:46.482Z,11.50
2022-10-20T04:50:13.187Z,11.50
2022-10-20T04:52:39.831Z,11.50
2022-10-20T04:55:06.677Z,11.50
2022-10-20T04:57:43.730Z,11.50
2022-10-20T05:00:10.532Z,11.60
2022-10-20T05:02:37.116Z,11.60
2022-10-20T05:05:04.945Z,11.60
2022-10-20T05:07:31.524Z,11.60
2022-10-20T05:09:58.130Z,11.50
2022-10-20T05:12:24.723Z,11.50
2022-10-20T05:14:51.333Z,11.50
2022-10-20T05:17:17.907Z,11.50
2022-10-20T05:19:45.719Z,11.60
2022-10-20T05:22:12.299Z,11.50
2022-10-20T05:24:38.922Z,11.50
2022-10-20T05:27:05.512Z,11.50
2022-10-20T05:29:32.108Z,11.50
2022-10-20T05:31:58.691Z,11.50
2022-10-20T05:34:25.374Z,11.50
2022-10-20T05:36:55.078Z,11.60
2022-10-20T05:39:21.814Z,11.60
2022-10-20T05:41:48.435Z,11.50
2022-10-20T05:44:15.096Z,11.50
2022-10-20T05:46:42.559Z,11.50
2022-10-20T05:49:16.646Z,11.50
2022-10-20T05:51:44.100Z,11.50
2022-10-20T05:54:12.224Z,11.50
2022-10-20T05:56:38.940Z,11.50
2022-10-20T05:59:05.516Z,11.50
2022-10-20T06:01:40.316Z,11.50
2022-10-20T06:04:08.639Z,11.50
2022-10-20T06:06:36.108Z,11.50
2022-10-20T06:09:04.722Z,11.40
2022-10-20T06:11:33.776Z,11.40
2022-10-20T06:14:03.725Z,11.40
2022-10-20T06:16:30.556Z,11.40
2022-10-20T06:18:57.758Z,11.40
2022-10-20T06:21:25.760Z,11.50
2022-10-20T06:23:52.523Z,11.40
2022-10-20T06:26:20.251Z,11.40
2022-10-20T06:28:48.324Z,11.40
2022-10-20T06:31:22.144Z,11.40
2022-10-20T06:33:49.382Z,11.40
2022-10-20T06:36:16.599Z,11.40
2022-10-20T06:38:43.438Z,11.40
2022-10-20T06:41:11.407Z,11.40
2022-10-20T06:43:38.180Z,11.40
2022-10-20T06:46:06.260Z,11.40
2022-10-20T06:48:33.282Z,11.40
2022-10-20T06:51:00.961Z,11.40
2022-10-20T06:53:28.870Z,11.40
2022-10-20T06:56:15.071Z,11.40
2022-10-20T06:58:42.735Z,11.40
2022-10-20T07:01:11.750Z,11.40
2022-10-20T07:03:38.788Z,11.40
2022-10-20T07:06:06.114Z,11.40
2022-10-20T07:08:33.619Z,11.40
2022-10-20T07:11:05.051Z,11.40
2022-10-20T07:13:31.782Z,11.40
2022-10-20T07:15:58.830Z,11.40
2022-10-20T07:18:26.280Z,11.40
2022-10-20T07:20:55.723Z,11.50
2022-10-20T07:23:22.369Z,11.50
2022-10-20T07:25:48.960Z,11.50
2022-10-20T07:28:15.584Z,11.50
2022-10-20T07:30:42.225Z,11.50
2022-10-20T07:33:09.268Z,11.50
2022-10-20T07:35:36.115Z,11.60
2022-10-20T07:38:02.788Z,11.60
2022-10-20T07:40:29.917Z,11.60
2022-10-20T07:42:56.499Z,11.70
2022-10-20T07:45:23.099Z,11.80
2022-10-20T07:47:49.695Z,11.90
2022-10-20T07:50:16.366Z,11.90
2022-10-20T07:52:42.987Z,11.90
2022-10-20T07:55:25.303Z,12.00
2022-10-20T07:57:56.192Z,12.10
2022-10-20T08:00:22.821Z,12.10
2022-10-20T08:02:49.583Z,12.10
2022-10-20T08:05:16.247Z,12.10
2022-10-20T08:07:42.906Z,12.10
2022-10-20T08:10:09.721Z,12.00
2022-10-20T08:12:36.784Z,12.00
2022-10-20T08:15:04.108Z,12.00
2022-10-20T08:20:24.935Z,12.00
2022-10-20T08:22:53.752Z,12.00
2022-10-20T08:25:20.424Z,12.00
2022-10-20T08:27:47.044Z,12.00
2022-10-20T08:30:26.407Z,12.00
2022-10-20T08:32:53.561Z,12.00
2022-10-20T08:35:21.769Z,12.10
2022-10-20T08:37:48.488Z,12.10
2022-10-20T08:40:17.531Z,12.10
2022-10-20T08:42:45.251Z,12.20
2022-10-20T08:45:15.763Z,12.20
2022-10-20T08:47:42.752Z,12.30
2022-10-20T08:50:11.781Z,12.30
2022-10-20T08:52:40.162Z,12.30
2022-10-20T08:55:07.350Z,12.40
2022-10-20T08:57:36.336Z,12.40
2022-10-20T09:00:19.101Z,12.50
2022-10-20T09:02:46.787Z,12.60
2022-10-20T09:05:16.786Z,12.70
2022-10-20T09:07:48.352Z,12.90
2022-10-20T09:10:21.158Z,13.10
2022-10-20T09:12:48.471Z,13.30
2022-10-20T09:15:16.215Z,13.60
2022-10-20T09:17:48.715Z,13.90
2022-10-20T09:20:22.955Z,14.30
2022-10-20T09:22:49.663Z,14.70
2022-10-20T09:25:17.659Z,14.80
2022-10-20T09:27:45.268Z,14.80
2022-10-20T09:30:19.693Z,14.60
2022-10-20T09:32:56.429Z,14.50
2022-10-20T09:35:28.170Z,14.40
2022-10-20T09:38:03.897Z,14.20
2022-10-20T09:40:31.148Z,14.20
2022-10-20T09:43:02.392Z,14.10
2022-10-20T09:45:30.687Z,14.10
2022-10-20T09:48:16.712Z,14.20
2022-10-20T09:50:46.521Z,14.20
2022-10-20T09:53:20.970Z,14.20
2022-10-20T09:55:51.439Z,14.30
2022-10-20T09:58:23.256Z,14.40
2022-10-20T10:00:58.139Z,14.40
2022-10-20T10:03:25.260Z,14.50
2022-10-20T10:05:53.193Z,14.70
2022-10-20T10:08:20.919Z,14.70
2022-10-20T10:10:58.371Z,14.80
2022-10-20T10:13:26.596Z,14.90
2022-10-20T10:16:07.423Z,14.90
2022-10-20T10:18:34.899Z,14.80
2022-10-20T10:21:06.234Z,14.90
2022-10-20T10:23:36.580Z,14.80
2022-10-20T10:26:04.062Z,14.80
2022-10-20T10:28:34.974Z,14.70
2022-10-20T10:31:21.047Z,14.80
2022-10-20T10:33:48.620Z,15.00
2022-10-20T10:36:27.976Z,15.20
2022-10-20T10:38:54.652Z,15.50
2022-10-20T10:41:30.536Z,15.70
2022-10-20T10:44:15.455Z,15.90
2022-10-20T10:46:54.412Z,16.20
2022-10-20T10:49:32.628Z,16.20
2022-10-20T10:52:07.420Z,16.20
2022-10-20T10:54:52.784Z,16.20
2022-10-20T10:57:36.583Z,16.10
2022-10-20T11:00:10.769Z,15.90
2022-10-20T11:02:49.210Z,15.70
2022-10-20T11:07:45.519Z,15.70
2022-10-20T11:10:18.119Z,15.80
2022-10-20T11:13:03.719Z,15.90
2022-10-20T11:15:33.096Z,15.80
2022-10-20T11:18:02.691Z,15.80
2022-10-20T11:20:43.250Z,15.80
2022-10-20T11:23:28.828Z,15.80
2022-10-20T11:26:02.781Z,15.90
2022-10-20T11:28:35.442Z,16.00
2022-10-20T11:31:04.091Z,16.00
2022-10-20T11:33:41.466Z,16.20
2022-10-20T11:36:14.813Z,16.30
2022-10-20T11:38:44.683Z,16.50
2022-10-20T11:41:17.085Z,16.60
2022-10-20T11:43:48.361Z,16.80
2022-10-20T11:46:23.191Z,16.90
2022-10-20T11:48:49.765Z,17.00
2022-10-20T11:51:38.191Z,17.10
2022-10-20T11:54:23.502Z,17.30
2022-10-20T11:57:25.712Z,17.30
2022-10-20T12:00:15.414Z,17.30
2022-10-20T12:02:51.210Z,17.40
2022-10-20T12:05:17.954Z,17.40
2022-10-20T12:07:44.540Z,17.50
2022-10-20T12:10:23.460Z,17.60
2022-10-20T12:13:08.819Z,17.60
2022-10-20T12:15:44.201Z,17.70
2022-10-20T12:18:29.023Z,17.70
2022-10-20T12:21:04.690Z,17.70
2022-10-20T12:23:49.347Z,17.90
2022-10-20T12:26:38.759Z,18.00
2022-10-20T12:29:26.299Z,18.10
2022-10-20T12:32:11.672Z,18.10
2022-10-20T12:34:39.729Z,18.20
2022-10-20T12:37:07.421Z,18.30
2022-10-20T12:39:34.134Z,18.40
2022-10-20T12:42:01.905Z,18.50
2022-10-20T12:44:33.821Z,18.60
2022-10-20T12:47:03.308Z,18.70
2022-10-20T12:49:32.752Z,18.70
2022-10-20T12:52:00.054Z,18.70
2022-10-20T12:54:26.729Z,18.80
2022-10-20T12:56:56.594Z,18.80
2022-10-20T12:59:23.228Z,18.70
2022-10-20T13:02:08.190Z,18.60
2022-10-20T13:04:54.695Z,18.60
2022-10-20T13:07:40.437Z,18.60
2022-10-20T13:10:26.161Z,18.50
2022-10-20T13:13:01.946Z,18.40
2022-10-20T13:15:35.363Z,18.40
2022-10-20T13:18:04.010Z,18.40
2022-10-20T13:20:44.790Z,18.40
2022-10-20T13:23:22.923Z,18.40
2022-10-20T13:25:51.650Z,18.30
2022-10-20T13:28:20.518Z,18.20
2022-10-20T13:30:55.767Z,18.20
2022-10-20T13:33:38.912Z,18.10
2022-10-20T13:36:23.447Z,18.10
2022-10-20T13:38:56.891Z,18.00
2022-10-20T13:41:34.019Z,17.90
2022-10-20T13:44:14.931Z,17.90
2022-10-20T13:46:42.944Z,17.80
2022-10-20T13:49:29.124Z,17.80
2022-10-20T13:51:58.656Z,17.70
2022-10-20T13:54:27.720Z,17.70
2022-10-20T13:56:54.835Z,17.70
2022-10-20T14:01:56.405Z,17.70
2022-10-20T14:04:25.055Z,17.70
2022-10-20T14:06:51.663Z,17.70
2022-10-20T14:09:20.244Z,17.70
2022-10-20T14:11:48.285Z,17.70
2022-10-20T14:14:16.660Z,17.70
2022-10-20T14:16:48.803Z,17.80
2022-10-20T14:19:15.461Z,17.80
2022-10-20T14:21:46.603Z,17.90
2022-10-20T14:24:32.143Z,17.90
2022-10-20T14:26:59.909Z,17.90
2022-10-20T14:29:29.070Z,17.90
2022-10-20T14:31:56.439Z,17.90
2022-10-20T14:34:25.588Z,17.90
2022-10-20T14:36:52.849Z,17.90
2022-10-20T14:39:22.180Z,17.80
2022-10-20T14:41:48.768Z,17.80
2022-10-20T14:44:30.186Z,17.70
2022-10-20T14:46:59.933Z,17.60
2022-10-20T14:49:29.155Z,17.50
2022-10-20T14:51:55.740Z,17.40
2022-10-20T14:54:25.514Z,17.30
2022-10-20T14:56:53.432Z,17.10
2022-10-20T14:59:21.889Z,17.00
2022-10-20T15:02:12.321Z,16.90
2022-10-20T15:04:40.348Z,16.90
2022-10-20T15:07:15.156Z,16.80
2022-10-20T15:09:43.865Z,16.70
2022-10-20T15:12:18.620Z,16.70
2022-10-20T15:14:47.140Z,16.60
2022-10-20T15:17:32.761Z,16.50
2022-10-20T15:19:59.489Z,16.50
2022-10-20T15:22:26.119Z,16.40
2022-10-20T15:24:53.079Z,16.40
2022-10-20T15:27:19.724Z,16.30
2022-10-20T15:29:50.880Z,16.20
2022-10-20T15:32:18.118Z,16.10
2022-10-20T15:34:44.939Z,16.00
2022-10-20T15:37:11.543Z,16.00
2022-10-20T15:39:38.160Z,15.90
2022-10-20T15:42:10.914Z,15.90
2022-10-20T15:44:38.070Z,15.70
2022-10-20T15:47:04.709Z,15.70
2022-10-20T15:49:31.370Z,15.60
2022-10-20T15:51:58.109Z,15.50
2022-10-20T15:54:24.812Z,15.40
2022-10-20T15:56:51.430Z,15.30
2022-10-20T15:59:18.254Z,15.20
2022-10-20T16:01:44.926Z,15.10
2022-10-20T16:04:14.543Z,15.10
2022-10-20T16:06:42.200Z,15.00
2022-10-20T16:09:10.796Z,14.90
2022-10-20T16:11:40.167Z,14.80
2022-10-20T16:14:06.867Z,14.80
2022-10-20T16:16:33.503Z,14.70
2022-10-20T16:19:00.166Z,14.70
2022-10-20T16:21:26.853Z,14.60
2022-10-20T16:23:53.455Z,14.50
2022-10-20T16:26:21.286Z,14.50
2022-10-20T16:28:48.035Z,14.50
2022-10-20T16:31:15.908Z,14.50
2022-10-20T16:33:42.595Z,14.40
2022-10-20T16:36:10.003Z,14.40
2022-10-20T16:38:39.904Z,14.40
2022-10-20T16:41:11.858Z,14.30
2022-10-20T16:43:43.318Z,14.30
2022-10-20T16:46:11.039Z,14.30
2022-10-20T16:48:40.413Z,14.30
2022-10-20T16:51:10.016Z,14.20
2022-10-20T16:53:36.973Z,14.20
2022-10-20T16:56:03.780Z,14.20
2022-10-20T16:58:30.355Z,14.20
2022-10-20T17:01:08.584Z,14.10
2022-10-20T17:03:35.919Z,14.00
2022-10-20T17:06:04.649Z,14.00
2022-10-20T17:08:31.978Z,13.90
2022-10-20T17:11:03.912Z,13.90
2022-10-20T17:13:31.300Z,13.80
2022-10-20T17:16:03.224Z,13.80
2022-10-20T17:18:29.820Z,13.80
2022-10-20T17:20:56.464Z,13.70
2022-10-20T17:23:23.624Z,13.70
2022-10-20T17:25:51.079Z,13.70
2022-10-20T17:28:17.759Z,13.60
2022-10-20T17:30:45.327Z,13.60
2022-10-20T17:33:12.366Z,13.50
2022-10-20T17:35:39.056Z,13.50
2022-10-20T17:38:06.228Z,13.50
2022-10-20T17:40:37.367Z,13.40
2022-10-20T17:43:04.258Z,13.40
2022-10-20T17:45:33.824Z,13.30
2022-10-20T17:48:02.831Z,13.30
2022-10-20T17:50:29.456Z,13.20
2022-10-20T17:52:56.040Z,13.20
2022-10-20T17:55:22.685Z,13.20
2022-10-20T17:57:50.240Z,13.20
2022-10-20T18:00:26.838Z,13.10
2022-10-20T18:03:03.608Z,13.10
2022-10-20T18:05:30.279Z,13.00
2022-10-20T18:07:56.953Z,13.00
2022-10-20T18:10:23.552Z,13.00
2022-10-20T18:12:51.175Z,13.00
2022-10-20T18:15:17.858Z,13.00
2022-10-20T18:17:44.435Z,13.00
2022-10-20T18:20:12.603Z,13.00
2022-10-20T18:22:39.905Z,13.00
2022-10-20T18:25:07.588Z,13.00
2022-10-20T18:27:34.204Z,13.00
2022-10-20T18:30:00.805Z,13.00
2022-10-20T18:32:27.431Z,13.00
2022-10-20T18:34:54.147Z,13.00
2022-10-20T18:37:20.749Z,13.00
2022-10-20T18:39:47.415Z,13.00
2022-10-20T18:42:14.033Z,13.00
2022-10-20T18:44:40.699Z,13.00
2022-10-20T18:47:07.313Z,13.00
2022-10-20T18:49:33.948Z,12.90
2022-10-20T18:52:00.627Z,12.90
2022-10-20T18:54:28.132Z,12.90
2022-10-20T18:56:54.844Z,12.90
2022-10-20T18:59:22.887Z,12.90
2022-10-20T19:01:49.580Z,12.90
2022-10-20T19:04:16.268Z,12.90
2022-10-20T19:06:44.447Z,12.90
2022-10-20T19:09:15.689Z,12.90
2022-10-20T19:11:42.972Z,12.80
2022-10-20T19:14:09.994Z,12.80
2022-10-20T19:16:37.494Z,12.80
2022-10-20T19:19:05.357Z,12.80
2022-10-20T19:21:32.621Z,12.70
2022-10-20T19:24:00.894Z,12.70
2022-10-20T19:26:32.132Z,12.70
2022-10-20T19:29:03.700Z,12.60
2022-10-20T19:31:36.336Z,12.60
2022-10-20T19:34:05.696Z,12.50
2022-10-20T19:36:32.679Z,12.50
2022-10-20T19:38:59.353Z,12.50
2022-10-20T19:41:26.100Z,12.40
2022-10-20T19:43:52.715Z,12.40
2022-10-20T19:46:20.026Z,12.30
2022-10-20T19:48:46.868Z,12.30
2022-10-20T19:51:14.396Z,12.30
2022-10-20T19:53:41.032Z,12.30
2022-10-20T19:56:08.619Z,12.30
2022-10-20T19:58:36.721Z,12.30
2022-10-20T20:01:04.163Z,12.30
2022-10-20T20:03:30.882Z,12.30
2022-10-20T20:06:01.576Z,12.30
2022-10-20T20:08:28.689Z,12.30
2022-10-20T20:10:55.863Z,12.30
2022-10-20T20:13:22.946Z,12.30
2022-10-20T20:15:49.640Z,12.20
2022-10-20T20:18:17.264Z,12.20
2022-10-20T20:20:44.891Z,12.20
2022-10-20T20:23:11.961Z,12.20
2022-10-20T20:25:39.497Z,12.10
2022-10-20T20:28:06.316Z,12.10
2022-10-20T20:30:33.487Z,12.10
2022-10-20T20:33:00.332Z,12.00
2022-10-20T20:35:27.481Z,12.00
2022-10-20T20:37:54.261Z,12.00
2022-10-20T20:40:21.182Z,11.90
2022-10-20T20:42:47.912Z,11.90
2022-10-20T20:45:14.722Z,11.90
2022-10-20T20:47:41.291Z,11.80
2022-10-20T20:50:08.219Z,11.70
2022-10-20T20:52:34.823Z,11.70
2022-10-20T20:55:01.431Z,11.70
2022-10-20T20:57:28.903Z,11.60
2022-10-20T20:59:55.517Z,11.60
2022-10-20T21:02:22.160Z,11.50
2022-10-20T21:04:48.759Z,11.50
2022-10-20T21:07:15.355Z,11.40
2022-10-20T21:09:41.923Z,11.30
2022-10-20T21:12:08.616Z,11.30
2022-10-20T21:14:35.228Z,11.20
2022-10-20T21:17:01.962Z,11.20
2022-10-20T21:19:29.351Z,11.20
2022-10-20T21:22:01.139Z,11.10
2022-10-20T21:24:27.920Z,11.10
2022-10-20T21:26:54.566Z,11.10
2022-10-20T21:29:21.152Z,11.00
2022-10-20T21:31:47.918Z,11.00
2022-10-20T21:34:14.571Z,11.00
2022-10-20T21:36:41.260Z,11.00
2022-10-20T21:39:11.475Z,11.00
2022-10-20T21:41:38.771Z,10.90
2022-10-20T21:44:06.522Z,10.90
2022-10-20T21:46:39.051Z,11.00
2022-10-20T21:49:06.965Z,11.00
2022-10-20T21:51:34.933Z,11.10
2022-10-20T21:54:03.101Z,11.10
2022-10-20T21:56:30.359Z,11.10
2022-10-20T21:58:57.080Z,11.20
2022-10-20T22:01:24.962Z,11.20
2022-10-20T22:03:52.710Z,11.30
2022-10-20T22:06:21.247Z,11.40
2022-10-20T22:08:51.645Z,11.40
2022-10-20T22:11:23.185Z,11.40
2022-10-20T22:13:50.221Z,11.40
2022-10-20T22:16:18.587Z,11.50
2022-10-20T22:18:45.343Z,11.50
2022-10-20T22:21:16.240Z,11.50
2022-10-20T22:23:43.456Z,11.60
2022-10-20T22:26:10.346Z,11.60
2022-10-20T22:28:37.186Z,11.60
2022-10-20T22:31:04.291Z,11.60
2022-10-20T22:33:30.927Z,11.70
2022-10-20T22:35:57.520Z,11.70
2022-10-20T22:38:24.193Z,11.70
2022-10-20T22:40:50.784Z,11.70
2022-10-20T22:43:17.385Z,11.70
2022-10-20T22:45:43.963Z,11.70
2022-10-20T22:48:10.552Z,11.80
2022-10-20T22:50:37.168Z,11.80
2022-10-20T22:53:03.799Z,11.90
2022-10-20T22:55:30.619Z,12.00
2022-10-20T23:00:23.888Z,12.10
2022-10-20T23:02:50.460Z,12.10
2022-10-20T23:05:17.127Z,12.20
2022-10-20T23:07:43.711Z,12.30
2022-10-20T23:10:10.404Z,12.30
2022-10-20T23:12:37.270Z,12.30
2022-10-20T23:15:04.636Z,12.40
2022-10-20T23:17:31.264Z,12.30
2022-10-20T23:19:57.888Z,12.30
2022-10-20T23:22:24.630Z,12.30
2022-10-20T23:24:51.249Z,12.30
2022-10-20T23:27:17.920Z,12.30
2022-10-20T23:29:44.549Z,12.30
2022-10-20T23:32:11.249Z,12.30
2022-10-20T23:34:37.932Z,12.30
2022-10-20T23:37:04.578Z,12.20
2022-10-20T23:39:31.208Z,12.20
2022-10-20T23:41:57.907Z,12.20
2022-10-20T23:44:24.601Z,12.20
2022-10-20T23:46:52.013Z,12.20
2022-10-20T23:49:18.712Z,12.20
2022-10-20T23:51:45.362Z,12.20
2022-10-20T23:54:12.033Z,12.20
2022-10-20T23:56:38.672Z,12.20
2022-10-20T23:59:05.335Z,12.20
